sensor_id;sensor_type;location;lat;lon;timestamp;temperature;humidity
17671;DHT22;8954;48.694;8.940;2023-05-10T06:46:55;14.50;99.90
17671;DHT22;8954;48.694;8.940;2023-05-10T06:49:21;14.40;99.90
17671;DHT22;8954;48.694;8.940;2023-05-10T06:51:47;14.40;99.90
17671;DHT22;8954;48.694;8.940;2023-05-10T06:54:13;14.30;99.90
17671;DHT22;8954;48.694;8.940;2023-05-10T06:56:39;14.40;99.90
17671;DHT22;8954;48.694;8.940;2023-05-10T06:59:04;14.30;99.90
17671;DHT22;8954;48.694;8.940;2023-05-10T07:01:30;14.50;99.90
17671;DHT22;8954;48.694;8.940;2023-05-10T07:03:56;14.50;99.90
17671;DHT22;8954;48.694;8.940;2023-05-10T07:06:22;14.60;99.90
17671;DHT22;8954;48.694;8.940;2023-05-10T07:08:47;14.80;99.90
17671;DHT22;8954;48.694;8.940;2023-05-10T07:11:13;14.90;99.90
17671;DHT22;8954;48.694;8.940;2023-05-10T07:13:38;14.80;99.90
17671;DHT22;8954;48.694;8.940;2023-05-10T07:16:06;14.80;99.90
17671;DHT22;8954;48.694;8.940;2023-05-10T07:18:33;15.00;99.90
17671;DHT22;8954;48.694;8.940;2023-05-10T07:20:58;15.30;99.90
17671;DHT22;8954;48.694;8.940;2023-05-10T07:23:24;15.30;99.90
17671;DHT22;8954;48.694;8.940;2023-05-10T07:25:50;15.50;99.90
17671;DHT22;8954;48.694;8.940;2023-05-10T07:28:19;15.70;99.90
17671;DHT22;8954;48.694;8.940;2023-05-10T07:30:45;15.90;99.90
17671;DHT22;8954;48.694;8.940;2023-05-10T07:33:13;15.80;99.90
17671;DHT22;8954;48.694;8.940;2023-05-10T07:35:39;15.80;99.90
17671;DHT22;8954;48.694;8.940;2023-05-10T07:38:05;15.90;99.90
17671;DHT22;8954;48.694;8.940;2023-05-10T07:40:31;15.80;99.90
17671;DHT22;8954;48.694;8.940;2023-05-10T07:42:56;15.60;99.90
17671;DHT22;8954;48.694;8.940;2023-05-10T07:45:22;15.50;99.90
17671;DHT22;8954;48.694;8.940;2023-05-10T07:47:48;15.50;99.90
17671;DHT22;8954;48.694;8.940;2023-05-10T07:50:14;15.50;99.90
17671;DHT22;8954;48.694;8.940;2023-05-10T07:52:43;15.60;99.90
17671;DHT22;8954;48.694;8.940;2023-05-10T07:55:09;15.80;99.90
17671;DHT22;8954;48.694;8.940;2023-05-10T07:57:34;15.70;99.90
17671;DHT22;8954;48.694;8.940;2023-05-10T08:00:00;15.80;99.90
17671;DHT22;8954;48.694;8.940;2023-05-10T08:02:26;15.80;99.90
17671;DHT22;8954;48.694;8.940;2023-05-10T08:04:51;15.90;99.90
17671;DHT22;8954;48.694;8.940;2023-05-10T08:07:17;16.40;99.90
17671;DHT22;8954;48.694;8.940;2023-05-10T08:09:43;16.60;99.90
17671;DHT22;8954;48.694;8.940;2023-05-10T08:12:08;16.80;99.90
17671;DHT22;8954;48.694;8.940;2023-05-10T08:14:34;16.90;99.90
17671;DHT22;8954;48.694;8.940;2023-05-10T08:17:02;17.10;99.90
17671;DHT22;8954;48.694;8.940;2023-05-10T08:19:27;17.10;99.90
17671;DHT22;8954;48.694;8.940;2023-05-10T08:21:53;17.40;99.90
17671;DHT22;8954;48.694;8.940;2023-05-10T08:24:21;17.50;99.90
17671;DHT22;8954;48.694;8.940;2023-05-10T08:26:46;17.40;99.90
17671;DHT22;8954;48.694;8.940;2023-05-10T08:29:13;17.40;99.90
17671;DHT22;8954;48.694;8.940;2023-05-10T08:31:38;17.40;99.90
17671;DHT22;8954;48.694;8.940;2023-05-10T08:34:04;17.30;99.90
17671;DHT22;8954;48.694;8.940;2023-05-10T08:36:30;17.10;99.90
17671;DHT22;8954;48.694;8.940;2023-05-10T08:38:55;17.20;99.90
17671;DHT22;8954;48.694;8.940;2023-05-10T08:41:22;17.30;99.90
17671;DHT22;8954;48.694;8.940;2023-05-10T08:43:50;17.40;99.90
17671;DHT22;8954;48.694;8.940;2023-05-10T08:46:17;17.70;99.90
17671;DHT22;8954;48.694;8.940;2023-05-10T08:48:44;17.80;99.90
17671;DHT22;8954;48.694;8.940;2023-05-10T08:51:13;17.00;99.90
17671;DHT22;8954;48.694;8.940;2023-05-10T08:53:39;16.10;99.90
17671;DHT22;8954;48.694;8.940;2023-05-10T08:56:05;15.30;99.90
17671;DHT22;8954;48.694;8.940;2023-05-10T08:58:31;15.10;99.90
17671;DHT22;8954;48.694;8.940;2023-05-10T09:00:57;15.00;99.90
17671;DHT22;8954;48.694;8.940;2023-05-10T09:03:23;15.10;99.90
17671;DHT22;8954;48.694;8.940;2023-05-10T09:05:49;14.90;99.90
17671;DHT22;8954;48.694;8.940;2023-05-10T09:08:15;14.70;99.90
17671;DHT22;8954;48.694;8.940;2023-05-10T09:10:45;14.60;99.90
17671;DHT22;8954;48.694;8.940;2023-05-10T09:13:14;14.80;99.90
17671;DHT22;8954;48.694;8.940;2023-05-10T09:15:40;15.00;99.90
17671;DHT22;8954;48.694;8.940;2023-05-10T09:18:06;15.40;99.90
17671;DHT22;8954;48.694;8.940;2023-05-10T09:20:31;15.80;99.90
17671;DHT22;8954;48.694;8.940;2023-05-10T09:22:57;15.90;99.90
17671;DHT22;8954;48.694;8.940;2023-05-10T09:25:22;16.00;99.90
17671;DHT22;8954;48.694;8.940;2023-05-10T09:27:48;16.10;99.90
17671;DHT22;8954;48.694;8.940;2023-05-10T09:30:29;15.90;99.90
17671;DHT22;8954;48.694;8.940;2023-05-10T09:32:56;16.00;99.90
17671;DHT22;8954;48.694;8.940;2023-05-10T09:35:24;16.10;99.90
17671;DHT22;8954;48.694;8.940;2023-05-10T09:37:52;16.10;99.90
17671;DHT22;8954;48.694;8.940;2023-05-10T09:40:23;16.10;99.90
17671;DHT22;8954;48.694;8.940;2023-05-10T09:42:56;16.30;99.90
17671;DHT22;8954;48.694;8.940;2023-05-10T09:45:24;16.80;99.90
17671;DHT22;8954;48.694;8.940;2023-05-10T09:47:50;17.20;99.90
17671;DHT22;8954;48.694;8.940;2023-05-10T09:50:16;17.60;99.90
17671;DHT22;8954;48.694;8.940;2023-05-10T09:52:58;17.70;99.90
17671;DHT22;8954;48.694;8.940;2023-05-10T09:55:45;17.70;99.90
17671;DHT22;8954;48.694;8.940;2023-05-10T09:58:12;17.90;99.90
17671;DHT22;8954;48.694;8.940;2023-05-10T10:00:39;17.90;99.90
17671;DHT22;8954;48.694;8.940;2023-05-10T10:03:06;18.10;99.90
17671;DHT22;8954;48.694;8.940;2023-05-10T10:05:33;18.20;99.90
17671;DHT22;8954;48.694;8.940;2023-05-10T10:08:00;18.30;99.90
17671;DHT22;8954;48.694;8.940;2023-05-10T10:10:27;18.90;99.90
17671;DHT22;8954;48.694;8.940;2023-05-10T10:12:54;19.20;99.90
17671;DHT22;8954;48.694;8.940;2023-05-10T10:15:21;19.20;99.90
17671;DHT22;8954;48.694;8.940;2023-05-10T10:17:48;19.50;99.90
17671;DHT22;8954;48.694;8.940;2023-05-10T10:20:14;19.80;99.90
17671;DHT22;8954;48.694;8.940;2023-05-10T10:22:40;20.40;99.90
17671;DHT22;8954;48.694;8.940;2023-05-10T10:25:07;21.30;99.90
17671;DHT22;8954;48.694;8.940;2023-05-10T10:27:40;22.10;99.90
17671;DHT22;8954;48.694;8.940;2023-05-10T10:35:52;21.90;99.90
17671;DHT22;8954;48.694;8.940;2023-05-10T10:38:18;20.50;99.90
17671;DHT22;8954;48.694;8.940;2023-05-10T10:40:44;19.40;99.90
17671;DHT22;8954;48.694;8.940;2023-05-10T10:43:29;18.50;99.90
17671;DHT22;8954;48.694;8.940;2023-05-10T10:46:16;17.90;99.90
17671;DHT22;8954;48.694;8.940;2023-05-10T10:48:48;17.20;99.90
17671;DHT22;8954;48.694;8.940;2023-05-10T10:51:14;16.80;99.90
17671;DHT22;8954;48.694;8.940;2023-05-10T10:53:40;16.50;99.90
17671;DHT22;8954;48.694;8.940;2023-05-10T10:56:11;16.20;99.90
17671;DHT22;8954;48.694;8.940;2023-05-10T10:58:38;16.20;99.90
17671;DHT22;8954;48.694;8.940;2023-05-10T11:01:12;16.20;99.90
17671;DHT22;8954;48.694;8.940;2023-05-10T11:03:38;16.20;99.90
17671;DHT22;8954;48.694;8.940;2023-05-10T11:06:03;16.30;99.90
17671;DHT22;8954;48.694;8.940;2023-05-10T11:08:30;16.30;99.90
17671;DHT22;8954;48.694;8.940;2023-05-10T11:13:32;16.50;99.90
17671;DHT22;8954;48.694;8.940;2023-05-10T11:15:58;16.60;99.90
17671;DHT22;8954;48.694;8.940;2023-05-10T11:18:29;16.90;99.90
17671;DHT22;8954;48.694;8.940;2023-05-10T11:20:59;17.10;99.90
17671;DHT22;8954;48.694;8.940;2023-05-10T11:23:32;17.30;99.90
17671;DHT22;8954;48.694;8.940;2023-05-10T11:26:13;17.30;99.90
17671;DHT22;8954;48.694;8.940;2023-05-10T11:28:46;17.10;99.90
17671;DHT22;8954;48.694;8.940;2023-05-10T11:31:16;17.10;99.90
17671;DHT22;8954;48.694;8.940;2023-05-10T11:33:49;17.00;99.90
17671;DHT22;8954;48.694;8.940;2023-05-10T11:36:16;17.30;99.90
17671;DHT22;8954;48.694;8.940;2023-05-10T11:38:42;17.70;99.90
17671;DHT22;8954;48.694;8.940;2023-05-10T11:41:09;18.10;99.90
17671;DHT22;8954;48.694;8.940;2023-05-10T11:43:35;18.30;99.90
17671;DHT22;8954;48.694;8.940;2023-05-10T11:46:12;18.40;99.90
17671;DHT22;8954;48.694;8.940;2023-05-10T11:48:39;18.80;99.90
17671;DHT22;8954;48.694;8.940;2023-05-10T11:51:07;19.50;99.90
17671;DHT22;8954;48.694;8.940;2023-05-10T11:53:33;19.90;99.90
17671;DHT22;8954;48.694;8.940;2023-05-10T11:56:08;20.20;99.90
17671;DHT22;8954;48.694;8.940;2023-05-10T11:58:34;20.50;99.90
17671;DHT22;8954;48.694;8.940;2023-05-10T12:01:00;20.60;99.90
17671;DHT22;8954;48.694;8.940;2023-05-10T12:03:27;20.50;99.90
17671;DHT22;8954;48.694;8.940;2023-05-10T12:05:54;20.60;99.90
17671;DHT22;8954;48.694;8.940;2023-05-10T12:08:22;20.20;99.90
17671;DHT22;8954;48.694;8.940;2023-05-10T12:10:48;20.20;99.90
17671;DHT22;8954;48.694;8.940;2023-05-10T12:13:14;20.00;99.90
17671;DHT22;8954;48.694;8.940;2023-05-10T12:15:41;19.40;99.90
17671;DHT22;8954;48.694;8.940;2023-05-10T12:18:11;19.00;99.90
17671;DHT22;8954;48.694;8.940;2023-05-10T12:20:37;18.60;99.90
17671;DHT22;8954;48.694;8.940;2023-05-10T12:23:03;18.00;99.90
17671;DHT22;8954;48.694;8.940;2023-05-10T12:25:33;17.80;99.90
17671;DHT22;8954;48.694;8.940;2023-05-10T12:28:00;17.70;99.90
17671;DHT22;8954;48.694;8.940;2023-05-10T12:30:32;17.60;99.90
17671;DHT22;8954;48.694;8.940;2023-05-10T12:33:03;17.40;99.90
17671;DHT22;8954;48.694;8.940;2023-05-10T12:35:33;17.40;99.90
17671;DHT22;8954;48.694;8.940;2023-05-10T12:37:59;17.40;99.90
17671;DHT22;8954;48.694;8.940;2023-05-10T12:40:24;17.60;99.90
17671;DHT22;8954;48.694;8.940;2023-05-10T12:42:50;17.60;99.90
17671;DHT22;8954;48.694;8.940;2023-05-10T12:45:17;17.60;99.90
17671;DHT22;8954;48.694;8.940;2023-05-10T12:47:43;17.60;99.90
17671;DHT22;8954;48.694;8.940;2023-05-10T12:50:09;17.40;99.90
17671;DHT22;8954;48.694;8.940;2023-05-10T12:52:34;17.30;99.90
17671;DHT22;8954;48.694;8.940;2023-05-10T12:55:00;17.20;99.90
17671;DHT22;8954;48.694;8.940;2023-05-10T12:57:26;17.30;99.90
17671;DHT22;8954;48.694;8.940;2023-05-10T12:59:53;17.30;99.90
17671;DHT22;8954;48.694;8.940;2023-05-10T13:02:18;17.60;99.90
17671;DHT22;8954;48.694;8.940;2023-05-10T13:04:45;18.10;99.90
17671;DHT22;8954;48.694;8.940;2023-05-10T13:07:12;18.40;99.90
17671;DHT22;8954;48.694;8.940;2023-05-10T13:09:37;18.80;99.90
17671;DHT22;8954;48.694;8.940;2023-05-10T13:12:03;19.30;99.90
17671;DHT22;8954;48.694;8.940;2023-05-10T13:14:29;19.40;99.90
17671;DHT22;8954;48.694;8.940;2023-05-10T13:16:55;19.30;99.90
17671;DHT22;8954;48.694;8.940;2023-05-10T13:19:21;19.20;99.90
17671;DHT22;8954;48.694;8.940;2023-05-10T13:21:46;19.00;99.90
17671;DHT22;8954;48.694;8.940;2023-05-10T13:24:12;19.00;99.90
17671;DHT22;8954;48.694;8.940;2023-05-10T13:26:42;19.10;99.90
17671;DHT22;8954;48.694;8.940;2023-05-10T13:29:08;19.30;99.90
17671;DHT22;8954;48.694;8.940;2023-05-10T13:31:34;19.30;99.90
17671;DHT22;8954;48.694;8.940;2023-05-10T13:34:00;19.00;99.90
17671;DHT22;8954;48.694;8.940;2023-05-10T13:36:26;19.10;99.90
17671;DHT22;8954;48.694;8.940;2023-05-10T13:38:51;19.30;99.90
17671;DHT22;8954;48.694;8.940;2023-05-10T13:41:17;19.30;99.90
17671;DHT22;8954;48.694;8.940;2023-05-10T13:43:43;19.40;99.90
17671;DHT22;8954;48.694;8.940;2023-05-10T13:46:09;19.40;99.90
17671;DHT22;8954;48.694;8.940;2023-05-10T13:48:34;19.40;99.90
17671;DHT22;8954;48.694;8.940;2023-05-10T13:51:02;19.70;99.90
17671;DHT22;8954;48.694;8.940;2023-05-10T13:53:31;19.90;99.80
17671;DHT22;8954;48.694;8.940;2023-05-10T13:55:56;20.00;99.30
17671;DHT22;8954;48.694;8.940;2023-05-10T13:58:22;20.20;99.90
17671;DHT22;8954;48.694;8.940;2023-05-10T14:00:48;20.40;99.20
17671;DHT22;8954;48.694;8.940;2023-05-10T14:03:17;20.60;98.80
17671;DHT22;8954;48.694;8.940;2023-05-10T14:05:43;20.70;98.20
17671;DHT22;8954;48.694;8.940;2023-05-10T14:08:10;20.80;97.80
17671;DHT22;8954;48.694;8.940;2023-05-10T14:10:36;20.70;97.80
17671;DHT22;8954;48.694;8.940;2023-05-10T14:13:02;20.20;97.90
17671;DHT22;8954;48.694;8.940;2023-05-10T14:15:28;20.00;98.30
17671;DHT22;8954;48.694;8.940;2023-05-10T14:17:54;20.00;99.70
17671;DHT22;8954;48.694;8.940;2023-05-10T14:20:19;20.20;99.30
17671;DHT22;8954;48.694;8.940;2023-05-10T14:22:45;20.20;98.40
17671;DHT22;8954;48.694;8.940;2023-05-10T14:25:10;20.00;99.90
17671;DHT22;8954;48.694;8.940;2023-05-10T14:27:36;19.90;99.70
17671;DHT22;8954;48.694;8.940;2023-05-10T14:30:02;20.00;99.90
17671;DHT22;8954;48.694;8.940;2023-05-10T14:32:28;20.00;98.40
17671;DHT22;8954;48.694;8.940;2023-05-10T14:34:53;20.20;97.60
17671;DHT22;8954;48.694;8.940;2023-05-10T14:37:19;19.80;97.80
17671;DHT22;8954;48.694;8.940;2023-05-10T14:39:44;19.80;98.50
17671;DHT22;8954;48.694;8.940;2023-05-10T14:42:10;19.60;98.20
17671;DHT22;8954;48.694;8.940;2023-05-10T14:44:36;19.40;97.90
17671;DHT22;8954;48.694;8.940;2023-05-10T14:47:01;19.50;97.80
17671;DHT22;8954;48.694;8.940;2023-05-10T14:49:27;19.90;97.70
17671;DHT22;8954;48.694;8.940;2023-05-10T14:51:53;20.10;97.20
17671;DHT22;8954;48.694;8.940;2023-05-10T14:54:18;20.30;97.40
17671;DHT22;8954;48.694;8.940;2023-05-10T14:56:44;20.30;96.70
